sensor_id;sensor_type;location;lat;lon;timestamp;P1;durP1;ratioP1;P2;durP2;ratioP2
14756;SDS011;62446;53.214;10.398;2022-07-23T00:02:51;1.90;;;1.80;;
14756;SDS011;62446;53.214;10.398;2022-07-23T00:05:56;1.90;;;1.70;;
14756;SDS011;62446;53.214;10.398;2022-07-23T00:09:00;3.67;;;2.30;;
14756;SDS011;62446;53.214;10.398;2022-07-23T00:12:04;2.23;;;1.80;;
14756;SDS011;62446;53.214;10.398;2022-07-23T00:15:09;3.03;;;1.90;;
14756;SDS011;62446;53.214;10.398;2022-07-23T00:18:13;2.23;;;1.80;;
14756;SDS011;62446;53.214;10.398;2022-07-23T00:21:18;3.10;;;1.80;;
14756;SDS011;62446;53.214;10.398;2022-07-23T00:24:22;2.73;;;1.90;;
14756;SDS011;62446;53.214;10.398;2022-07-23T00:27:25;2.73;;;1.70;;
14756;SDS011;62446;53.214;10.398;2022-07-23T00:30:30;2.80;;;1.80;;
14756;SDS011;62446;53.214;10.398;2022-07-23T00:33:35;1.73;;;1.50;;
14756;SDS011;62446;53.214;10.398;2022-07-23T00:36:40;2.47;;;1.60;;
14756;SDS011;62446;53.214;10.398;2022-07-23T00:39:44;2.30;;;1.50;;
14756;SDS011;62446;53.214;10.398;2022-07-23T00:42:48;3.13;;;1.60;;
14756;SDS011;62446;53.214;10.398;2022-07-23T00:45:52;2.27;;;1.60;;
14756;SDS011;62446;53.214;10.398;2022-07-23T00:48:55;2.97;;;1.57;;
14756;SDS011;62446;53.214;10.398;2022-07-23T00:52:02;1.87;;;1.40;;
14756;SDS011;62446;53.214;10.398;2022-07-23T00:55:06;2.03;;;1.50;;
14756;SDS011;62446;53.214;10.398;2022-07-23T00:58:11;2.13;;;1.60;;
14756;SDS011;62446;53.214;10.398;2022-07-23T01:01:16;1.83;;;1.70;;
14756;SDS011;62446;53.214;10.398;2022-07-23T01:04:20;3.30;;;1.63;;
14756;SDS011;62446;53.214;10.398;2022-07-23T01:07:25;2.47;;;1.53;;
14756;SDS011;62446;53.214;10.398;2022-07-23T01:10:29;2.43;;;1.57;;
14756;SDS011;62446;53.214;10.398;2022-07-23T01:13:36;1.93;;;1.40;;
14756;SDS011;62446;53.214;10.398;2022-07-23T01:16:44;2.57;;;1.50;;
14756;SDS011;62446;53.214;10.398;2022-07-23T01:19:49;2.93;;;1.53;;
14756;SDS011;62446;53.214;10.398;2022-07-23T01:22:55;2.57;;;1.60;;
14756;SDS011;62446;53.214;10.398;2022-07-23T01:25:59;2.27;;;1.37;;
14756;SDS011;62446;53.214;10.398;2022-07-23T01:29:03;2.43;;;1.50;;
14756;SDS011;62446;53.214;10.398;2022-07-23T01:32:09;2.70;;;1.70;;
14756;SDS011;62446;53.214;10.398;2022-07-23T01:35:13;2.20;;;1.67;;
14756;SDS011;62446;53.214;10.398;2022-07-23T01:38:18;1.77;;;1.47;;
14756;SDS011;62446;53.214;10.398;2022-07-23T01:41:22;5.37;;;1.60;;
14756;SDS011;62446;53.214;10.398;2022-07-23T01:44:28;1.47;;;1.37;;
14756;SDS011;62446;53.214;10.398;2022-07-23T01:47:32;2.10;;;1.50;;
14756;SDS011;62446;53.214;10.398;2022-07-23T01:50:36;1.87;;;1.50;;
14756;SDS011;62446;53.214;10.398;2022-07-23T01:53:52;2.37;;;1.47;;
14756;SDS011;62446;53.214;10.398;2022-07-23T01:56:56;3.30;;;1.73;;
14756;SDS011;62446;53.214;10.398;2022-07-23T02:00:01;3.10;;;1.50;;
14756;SDS011;62446;53.214;10.398;2022-07-23T02:03:14;2.10;;;1.33;;
14756;SDS011;62446;53.214;10.398;2022-07-23T02:06:18;2.77;;;1.70;;
14756;SDS011;62446;53.214;10.398;2022-07-23T02:09:23;2.77;;;1.90;;
14756;SDS011;62446;53.214;10.398;2022-07-23T02:12:27;2.37;;;1.53;;
14756;SDS011;62446;53.214;10.398;2022-07-23T02:15:31;2.40;;;1.53;;
14756;SDS011;62446;53.214;10.398;2022-07-23T02:18:35;2.10;;;1.37;;
14756;SDS011;62446;53.214;10.398;2022-07-23T02:21:39;1.87;;;1.67;;
14756;SDS011;62446;53.214;10.398;2022-07-23T02:24:45;2.30;;;1.50;;
14756;SDS011;62446;53.214;10.398;2022-07-23T02:27:48;1.73;;;1.47;;
14756;SDS011;62446;53.214;10.398;2022-07-23T02:30:52;1.70;;;1.40;;
14756;SDS011;62446;53.214;10.398;2022-07-23T02:33:56;2.03;;;1.50;;
14756;SDS011;62446;53.214;10.398;2022-07-23T02:37:00;1.60;;;1.50;;
14756;SDS011;62446;53.214;10.398;2022-07-23T02:40:06;2.00;;;1.50;;
14756;SDS011;62446;53.214;10.398;2022-07-23T02:43:13;2.27;;;1.30;;
14756;SDS011;62446;53.214;10.398;2022-07-23T02:46:18;2.17;;;1.40;;
14756;SDS011;62446;53.214;10.398;2022-07-23T02:49:21;2.80;;;1.50;;
14756;SDS011;62446;53.214;10.398;2022-07-23T02:52:26;1.80;;;1.60;;
14756;SDS011;62446;53.214;10.398;2022-07-23T02:55:31;1.90;;;1.40;;
14756;SDS011;62446;53.214;10.398;2022-07-23T02:58:36;1.50;;;1.40;;
14756;SDS011;62446;53.214;10.398;2022-07-23T03:01:40;2.50;;;1.70;;
14756;SDS011;62446;53.214;10.398;2022-07-23T03:04:44;2.67;;;1.63;;
14756;SDS011;62446;53.214;10.398;2022-07-23T03:07:48;1.50;;;1.40;;
14756;SDS011;62446;53.214;10.398;2022-07-23T03:10:53;2.00;;;1.70;;
14756;SDS011;62446;53.214;10.398;2022-07-23T03:13:57;2.67;;;1.70;;
14756;SDS011;62446;53.214;10.398;2022-07-23T03:17:01;2.87;;;1.70;;
14756;SDS011;62446;53.214;10.398;2022-07-23T03:20:05;2.47;;;1.60;;
14756;SDS011;62446;53.214;10.398;2022-07-23T03:23:10;2.30;;;1.53;;
14756;SDS011;62446;53.214;10.398;2022-07-23T03:26:16;3.03;;;1.40;;
14756;SDS011;62446;53.214;10.398;2022-07-23T03:29:20;1.97;;;1.60;;
14756;SDS011;62446;53.214;10.398;2022-07-23T03:32:23;1.30;;;1.20;;
14756;SDS011;62446;53.214;10.398;2022-07-23T03:35:27;2.00;;;1.60;;
14756;SDS011;62446;53.214;10.398;2022-07-23T03:38:47;1.87;;;1.37;;
14756;SDS011;62446;53.214;10.398;2022-07-23T03:41:54;2.03;;;1.40;;
14756;SDS011;62446;53.214;10.398;2022-07-23T03:44:58;1.90;;;1.50;;
14756;SDS011;62446;53.214;10.398;2022-07-23T03:48:02;1.60;;;1.50;;
14756;SDS011;62446;53.214;10.398;2022-07-23T03:51:06;2.17;;;1.50;;
14756;SDS011;62446;53.214;10.398;2022-07-23T03:54:10;2.00;;;1.40;;
14756;SDS011;62446;53.214;10.398;2022-07-23T03:57:15;2.47;;;1.50;;
14756;SDS011;62446;53.214;10.398;2022-07-23T04:00:19;1.63;;;1.47;;
14756;SDS011;62446;53.214;10.398;2022-07-23T04:03:24;1.77;;;1.47;;
14756;SDS011;62446;53.214;10.398;2022-07-23T04:06:28;1.80;;;1.30;;
14756;SDS011;62446;53.214;10.398;2022-07-23T04:09:33;2.10;;;1.30;;
14756;SDS011;62446;53.214;10.398;2022-07-23T04:12:38;1.60;;;1.30;;
14756;SDS011;62446;53.214;10.398;2022-07-23T04:15:42;1.87;;;1.40;;
14756;SDS011;62446;53.214;10.398;2022-07-23T04:18:46;2.00;;;1.53;;
14756;SDS011;62446;53.214;10.398;2022-07-23T04:21:53;1.40;;;1.30;;
14756;SDS011;62446;53.214;10.398;2022-07-23T04:24:57;1.43;;;1.20;;
14756;SDS011;62446;53.214;10.398;2022-07-23T04:28:02;2.43;;;1.50;;
14756;SDS011;62446;53.214;10.398;2022-07-23T04:31:06;1.90;;;1.57;;
14756;SDS011;62446;53.214;10.398;2022-07-23T04:34:11;2.87;;;1.40;;
14756;SDS011;62446;53.214;10.398;2022-07-23T04:37:15;1.40;;;1.30;;
14756;SDS011;62446;53.214;10.398;2022-07-23T04:40:19;1.50;;;1.40;;
14756;SDS011;62446;53.214;10.398;2022-07-23T04:43:25;1.90;;;1.40;;
14756;SDS011;62446;53.214;10.398;2022-07-23T04:46:29;1.40;;;1.30;;
14756;SDS011;62446;53.214;10.398;2022-07-23T04:49:33;2.57;;;1.30;;
14756;SDS011;62446;53.214;10.398;2022-07-23T04:52:37;1.43;;;1.33;;
14756;SDS011;62446;53.214;10.398;2022-07-23T04:55:40;1.93;;;1.40;;
14756;SDS011;62446;53.214;10.398;2022-07-23T04:58:45;1.63;;;1.40;;
14756;SDS011;62446;53.214;10.398;2022-07-23T05:01:49;2.50;;;1.60;;
14756;SDS011;62446;53.214;10.398;2022-07-23T05:04:54;2.27;;;1.60;;
14756;SDS011;62446;53.214;10.398;2022-07-23T05:07:58;2.13;;;1.67;;
14756;SDS011;62446;53.214;10.398;2022-07-23T05:11:03;1.40;;;1.30;;
14756;SDS011;62446;53.214;10.398;2022-07-23T05:14:08;2.00;;;1.60;;
14756;SDS011;62446;53.214;10.398;2022-07-23T05:17:14;2.33;;;1.70;;
14756;SDS011;62446;53.214;10.398;2022-07-23T05:20:18;1.90;;;1.50;;
14756;SDS011;62446;53.214;10.398;2022-07-23T05:23:22;4.60;;;1.67;;
14756;SDS011;62446;53.214;10.398;2022-07-23T05:26:27;1.50;;;1.40;;
14756;SDS011;62446;53.214;10.398;2022-07-23T05:29:33;2.10;;;1.77;;
14756;SDS011;62446;53.214;10.398;2022-07-23T05:32:37;1.50;;;1.40;;
14756;SDS011;62446;53.214;10.398;2022-07-23T05:35:48;1.60;;;1.37;;
14756;SDS011;62446;53.214;10.398;2022-07-23T05:39:02;3.07;;;1.67;;
14756;SDS011;62446;53.214;10.398;2022-07-23T05:42:10;2.00;;;1.57;;
14756;SDS011;62446;53.214;10.398;2022-07-23T05:45:15;3.60;;;1.40;;
14756;SDS011;62446;53.214;10.398;2022-07-23T05:48:20;1.97;;;1.53;;
14756;SDS011;62446;53.214;10.398;2022-07-23T05:51:47;1.73;;;1.50;;
14756;SDS011;62446;53.214;10.398;2022-07-23T05:54:56;1.60;;;1.50;;
14756;SDS011;62446;53.214;10.398;2022-07-23T05:58:00;1.90;;;1.40;;
14756;SDS011;62446;53.214;10.398;2022-07-23T06:01:07;3.43;;;1.60;;
14756;SDS011;62446;53.214;10.398;2022-07-23T06:04:18;1.57;;;1.40;;
14756;SDS011;62446;53.214;10.398;2022-07-23T06:07:36;1.60;;;1.40;;
14756;SDS011;62446;53.214;10.398;2022-07-23T06:10:40;1.60;;;1.50;;
14756;SDS011;62446;53.214;10.398;2022-07-23T06:13:44;2.23;;;1.70;;
14756;SDS011;62446;53.214;10.398;2022-07-23T06:16:49;2.90;;;1.50;;
14756;SDS011;62446;53.214;10.398;2022-07-23T06:19:53;1.57;;;1.40;;
14756;SDS011;62446;53.214;10.398;2022-07-23T06:22:56;1.93;;;1.50;;
14756;SDS011;62446;53.214;10.398;2022-07-23T06:26:00;1.53;;;1.43;;
14756;SDS011;62446;53.214;10.398;2022-07-23T06:29:04;2.63;;;1.50;;
14756;SDS011;62446;53.214;10.398;2022-07-23T06:32:09;2.00;;;1.50;;
14756;SDS011;62446;53.214;10.398;2022-07-23T06:35:13;2.30;;;1.53;;
14756;SDS011;62446;53.214;10.398;2022-07-23T06:38:16;1.70;;;1.47;;
14756;SDS011;62446;53.214;10.398;2022-07-23T06:41:20;1.40;;;1.30;;
14756;SDS011;62446;53.214;10.398;2022-07-23T06:44:25;2.63;;;1.57;;
14756;SDS011;62446;53.214;10.398;2022-07-23T06:47:30;1.50;;;1.40;;
14756;SDS011;62446;53.214;10.398;2022-07-23T06:50:35;1.33;;;1.23;;
14756;SDS011;62446;53.214;10.398;2022-07-23T06:53:39;1.43;;;1.33;;
14756;SDS011;62446;53.214;10.398;2022-07-23T06:56:44;1.77;;;1.10;;
14756;SDS011;62446;53.214;10.398;2022-07-23T06:59:47;1.70;;;1.30;;
14756;SDS011;62446;53.214;10.398;2022-07-23T07:02:58;1.93;;;1.43;;
14756;SDS011;62446;53.214;10.398;2022-07-23T07:06:02;1.60;;;1.43;;
14756;SDS011;62446;53.214;10.398;2022-07-23T07:09:06;1.43;;;1.20;;
14756;SDS011;62446;53.214;10.398;2022-07-23T07:12:10;1.53;;;1.30;;
14756;SDS011;62446;53.214;10.398;2022-07-23T07:15:14;2.17;;;1.37;;
14756;SDS011;62446;53.214;10.398;2022-07-23T07:18:19;1.50;;;1.40;;
14756;SDS011;62446;53.214;10.398;2022-07-23T07:21:23;2.03;;;1.27;;
14756;SDS011;62446;53.214;10.398;2022-07-23T07:24:27;1.20;;;1.10;;
14756;SDS011;62446;53.214;10.398;2022-07-23T07:27:37;1.03;;;0.93;;
14756;SDS011;62446;53.214;10.398;2022-07-23T07:30:42;1.97;;;1.20;;
14756;SDS011;62446;53.214;10.398;2022-07-23T07:33:47;2.00;;;1.13;;
14756;SDS011;62446;53.214;10.398;2022-07-23T07:36:51;2.00;;;1.20;;
14756;SDS011;62446;53.214;10.398;2022-07-23T07:39:54;2.07;;;1.13;;
14756;SDS011;62446;53.214;10.398;2022-07-23T07:42:58;1.43;;;1.30;;
14756;SDS011;62446;53.214;10.398;2022-07-23T07:46:02;1.33;;;1.10;;
14756;SDS011;62446;53.214;10.398;2022-07-23T07:49:07;1.87;;;1.30;;
14756;SDS011;62446;53.214;10.398;2022-07-23T07:52:17;1.70;;;1.30;;
14756;SDS011;62446;53.214;10.398;2022-07-23T07:55:20;1.50;;;1.13;;
14756;SDS011;62446;53.214;10.398;2022-07-23T07:58:24;1.80;;;1.20;;
14756;SDS011;62446;53.214;10.398;2022-07-23T08:01:28;1.20;;;1.10;;
14756;SDS011;62446;53.214;10.398;2022-07-23T08:04:33;1.23;;;1.10;;
14756;SDS011;62446;53.214;10.398;2022-07-23T08:07:37;1.70;;;1.40;;
14756;SDS011;62446;53.214;10.398;2022-07-23T08:10:41;1.27;;;1.17;;
14756;SDS011;62446;53.214;10.398;2022-07-23T08:13:46;1.73;;;1.30;;
14756;SDS011;62446;53.214;10.398;2022-07-23T08:16:49;1.80;;;1.30;;
14756;SDS011;62446;53.214;10.398;2022-07-23T08:20:15;2.73;;;1.30;;
14756;SDS011;62446;53.214;10.398;2022-07-23T08:23:20;1.30;;;1.20;;
14756;SDS011;62446;53.214;10.398;2022-07-23T08:26:30;1.30;;;1.20;;
14756;SDS011;62446;53.214;10.398;2022-07-23T08:29:34;2.13;;;1.30;;
14756;SDS011;62446;53.214;10.398;2022-07-23T08:32:50;1.20;;;1.10;;
14756;SDS011;62446;53.214;10.398;2022-07-23T08:35:57;1.43;;;1.20;;
14756;SDS011;62446;53.214;10.398;2022-07-23T08:39:02;2.10;;;1.07;;
14756;SDS011;62446;53.214;10.398;2022-07-23T08:42:06;1.20;;;1.10;;
14756;SDS011;62446;53.214;10.398;2022-07-23T08:45:11;1.17;;;1.07;;
14756;SDS011;62446;53.214;10.398;2022-07-23T08:48:15;1.30;;;1.20;;
14756;SDS011;62446;53.214;10.398;2022-07-23T08:51:24;1.57;;;1.40;;
14756;SDS011;62446;53.214;10.398;2022-07-23T08:54:30;1.73;;;1.40;;
14756;SDS011;62446;53.214;10.398;2022-07-23T08:57:34;1.20;;;1.10;;
14756;SDS011;62446;53.214;10.398;2022-07-23T09:00:38;1.47;;;1.30;;
14756;SDS011;62446;53.214;10.398;2022-07-23T09:03:42;1.70;;;1.30;;
14756;SDS011;62446;53.214;10.398;2022-07-23T09:06:48;2.40;;;1.40;;
14756;SDS011;62446;53.214;10.398;2022-07-23T09:10:04;2.07;;;1.10;;
14756;SDS011;62446;53.214;10.398;2022-07-23T09:13:22;1.37;;;1.27;;
14756;SDS011;62446;53.214;10.398;2022-07-23T09:16:27;1.40;;;1.30;;
14756;SDS011;62446;53.214;10.398;2022-07-23T09:19:33;1.27;;;1.10;;
14756;SDS011;62446;53.214;10.398;2022-07-23T09:22:38;1.20;;;1.10;;
14756;SDS011;62446;53.214;10.398;2022-07-23T09:25:43;1.50;;;1.37;;
14756;SDS011;62446;53.214;10.398;2022-07-23T09:28:50;1.53;;;1.17;;
14756;SDS011;62446;53.214;10.398;2022-07-23T09:31:56;2.30;;;1.30;;
14756;SDS011;62446;53.214;10.398;2022-07-23T09:35:01;1.43;;;1.20;;
14756;SDS011;62446;53.214;10.398;2022-07-23T09:38:07;1.40;;;1.30;;
14756;SDS011;62446;53.214;10.398;2022-07-23T09:41:10;1.53;;;1.20;;
14756;SDS011;62446;53.214;10.398;2022-07-23T09:44:16;1.57;;;1.17;;
14756;SDS011;62446;53.214;10.398;2022-07-23T09:47:30;1.90;;;1.20;;
14756;SDS011;62446;53.214;10.398;2022-07-23T09:50:34;1.20;;;1.10;;
14756;SDS011;62446;53.214;10.398;2022-07-23T09:53:39;1.30;;;1.20;;
14756;SDS011;62446;53.214;10.398;2022-07-23T09:56:44;1.50;;;1.20;;
14756;SDS011;62446;53.214;10.398;2022-07-23T09:59:48;1.40;;;1.30;;
14756;SDS011;62446;53.214;10.398;2022-07-23T10:02:53;1.20;;;1.10;;
14756;SDS011;62446;53.214;10.398;2022-07-23T10:06:04;2.40;;;1.40;;
14756;SDS011;62446;53.214;10.398;2022-07-23T10:09:44;2.60;;;1.23;;
14756;SDS011;62446;53.214;10.398;2022-07-23T10:13:21;1.83;;;1.37;;
14756;SDS011;62446;53.214;10.398;2022-07-23T10:16:40;3.37;;;1.37;;
14756;SDS011;62446;53.214;10.398;2022-07-23T10:19:44;2.53;;;1.60;;
14756;SDS011;62446;53.214;10.398;2022-07-23T10:22:49;1.83;;;1.37;;
14756;SDS011;62446;53.214;10.398;2022-07-23T10:26:10;2.80;;;1.43;;
14756;SDS011;62446;53.214;10.398;2022-07-23T10:29:23;3.10;;;1.33;;
14756;SDS011;62446;53.214;10.398;2022-07-23T10:32:49;3.07;;;1.50;;
14756;SDS011;62446;53.214;10.398;2022-07-23T10:36:03;3.30;;;1.77;;
14756;SDS011;62446;53.214;10.398;2022-07-23T10:39:13;2.13;;;1.50;;
14756;SDS011;62446;53.214;10.398;2022-07-23T10:42:22;2.20;;;1.20;;
14756;SDS011;62446;53.214;10.398;2022-07-23T10:45:37;2.40;;;1.40;;
14756;SDS011;62446;53.214;10.398;2022-07-23T10:48:41;1.60;;;1.27;;
14756;SDS011;62446;53.214;10.398;2022-07-23T10:58:48;2.43;;;1.67;;
14756;SDS011;62446;53.214;10.398;2022-07-23T11:01:52;2.37;;;1.50;;
14756;SDS011;62446;53.214;10.398;2022-07-23T11:04:59;3.23;;;1.50;;
14756;SDS011;62446;53.214;10.398;2022-07-23T11:08:17;2.83;;;1.40;;
14756;SDS011;62446;53.214;10.398;2022-07-23T11:11:22;2.07;;;1.30;;
14756;SDS011;62446;53.214;10.398;2022-07-23T11:18:05;1.67;;;1.03;;
14756;SDS011;62446;53.214;10.398;2022-07-23T11:24:50;2.67;;;1.30;;
14756;SDS011;62446;53.214;10.398;2022-07-23T11:27:54;3.10;;;1.23;;
14756;SDS011;62446;53.214;10.398;2022-07-23T11:31:00;2.73;;;1.30;;
14756;SDS011;62446;53.214;10.398;2022-07-23T11:34:24;2.07;;;1.10;;
14756;SDS011;62446;53.214;10.398;2022-07-23T11:37:32;2.17;;;1.20;;
14756;SDS011;62446;53.214;10.398;2022-07-23T11:40:38;1.97;;;1.27;;
14756;SDS011;62446;53.214;10.398;2022-07-23T11:43:42;2.70;;;1.30;;
14756;SDS011;62446;53.214;10.398;2022-07-23T11:46:55;2.40;;;1.20;;
14756;SDS011;62446;53.214;10.398;2022-07-23T11:50:01;2.57;;;1.20;;
14756;SDS011;62446;53.214;10.398;2022-07-23T11:53:09;1.43;;;1.10;;
14756;SDS011;62446;53.214;10.398;2022-07-23T11:56:13;1.67;;;1.23;;
14756;SDS011;62446;53.214;10.398;2022-07-23T11:59:17;1.40;;;1.20;;
14756;SDS011;62446;53.214;10.398;2022-07-23T12:02:24;1.20;;;1.10;;
14756;SDS011;62446;53.214;10.398;2022-07-23T12:05:29;1.37;;;1.00;;
14756;SDS011;62446;53.214;10.398;2022-07-23T12:08:40;1.70;;;1.00;;
14756;SDS011;62446;53.214;10.398;2022-07-23T12:11:56;1.00;;;0.90;;
14756;SDS011;62446;53.214;10.398;2022-07-23T12:15:01;0.90;;;0.73;;
14756;SDS011;62446;53.214;10.398;2022-07-23T12:18:06;1.43;;;0.90;;
14756;SDS011;62446;53.214;10.398;2022-07-23T12:21:12;1.10;;;1.00;;
14756;SDS011;62446;53.214;10.398;2022-07-23T12:24:17;2.77;;;0.80;;
14756;SDS011;62446;53.214;10.398;2022-07-23T12:27:21;1.83;;;0.80;;
14756;SDS011;62446;53.214;10.398;2022-07-23T12:30:27;0.83;;;0.83;;
14756;SDS011;62446;53.214;10.398;2022-07-23T12:33:38;0.80;;;0.80;;
14756;SDS011;62446;53.214;10.398;2022-07-23T12:36:43;1.20;;;0.90;;
14756;SDS011;62446;53.214;10.398;2022-07-23T12:39:48;1.20;;;0.97;;
14756;SDS011;62446;53.214;10.398;2022-07-23T12:42:53;0.67;;;0.67;;
14756;SDS011;62446;53.214;10.398;2022-07-23T12:46:02;0.97;;;0.70;;
14756;SDS011;62446;53.214;10.398;2022-07-23T12:49:08;3.73;;;1.13;;
14756;SDS011;62446;53.214;10.398;2022-07-23T12:52:15;3.13;;;0.70;;
14756;SDS011;62446;53.214;10.398;2022-07-23T12:55:26;1.00;;;0.80;;
14756;SDS011;62446;53.214;10.398;2022-07-23T12:58:42;0.87;;;0.70;;
14756;SDS011;62446;53.214;10.398;2022-07-23T13:02:10;0.93;;;0.73;;
14756;SDS011;62446;53.214;10.398;2022-07-23T13:05:16;1.00;;;0.73;;
14756;SDS011;62446;53.214;10.398;2022-07-23T13:08:22;0.50;;;0.50;;
14756;SDS011;62446;53.214;10.398;2022-07-23T13:11:31;2.30;;;0.60;;
14756;SDS011;62446;53.214;10.398;2022-07-23T13:14:41;0.70;;;0.50;;
14756;SDS011;62446;53.214;10.398;2022-07-23T13:17:46;0.67;;;0.67;;
14756;SDS011;62446;53.214;10.398;2022-07-23T13:20:52;1.57;;;0.70;;
14756;SDS011;62446;53.214;10.398;2022-07-23T13:23:56;0.80;;;0.80;;
14756;SDS011;62446;53.214;10.398;2022-07-23T13:27:00;1.40;;;0.90;;
14756;SDS011;62446;53.214;10.398;2022-07-23T13:30:07;0.90;;;0.70;;
14756;SDS011;62446;53.214;10.398;2022-07-23T13:33:14;1.10;;;0.60;;
14756;SDS011;62446;53.214;10.398;2022-07-23T13:36:29;1.07;;;0.70;;
14756;SDS011;62446;53.214;10.398;2022-07-23T13:39:33;1.10;;;0.60;;
14756;SDS011;62446;53.214;10.398;2022-07-23T13:42:40;1.03;;;0.60;;
14756;SDS011;62446;53.214;10.398;2022-07-23T13:45:50;0.87;;;0.60;;
14756;SDS011;62446;53.214;10.398;2022-07-23T13:48:54;1.70;;;0.50;;
14756;SDS011;62446;53.214;10.398;2022-07-23T13:52:00;2.97;;;0.70;;
14756;SDS011;62446;53.214;10.398;2022-07-23T13:55:07;1.40;;;0.67;;
14756;SDS011;62446;53.214;10.398;2022-07-23T13:58:11;1.87;;;0.50;;
14756;SDS011;62446;53.214;10.398;2022-07-23T14:01:15;0.50;;;0.50;;
14756;SDS011;62446;53.214;10.398;2022-07-23T14:04:19;1.00;;;0.70;;
14756;SDS011;62446;53.214;10.398;2022-07-23T14:07:25;0.63;;;0.63;;
14756;SDS011;62446;53.214;10.398;2022-07-23T14:10:29;0.70;;;0.70;;
14756;SDS011;62446;53.214;10.398;2022-07-23T14:13:33;0.50;;;0.50;;
14756;SDS011;62446;53.214;10.398;2022-07-23T14:16:37;0.90;;;0.60;;
14756;SDS011;62446;53.214;10.398;2022-07-23T14:19:41;0.93;;;0.60;;
14756;SDS011;62446;53.214;10.398;2022-07-23T14:22:46;0.80;;;0.70;;
14756;SDS011;62446;53.214;10.398;2022-07-23T14:25:51;0.87;;;0.70;;
14756;SDS011;62446;53.214;10.398;2022-07-23T14:28:55;0.90;;;0.60;;
14756;SDS011;62446;53.214;10.398;2022-07-23T14:32:01;0.60;;;0.60;;
14756;SDS011;62446;53.214;10.398;2022-07-23T14:35:06;0.70;;;0.70;;
14756;SDS011;62446;53.214;10.398;2022-07-23T14:38:13;0.80;;;0.80;;
14756;SDS011;62446;53.214;10.398;2022-07-23T14:41:17;0.70;;;0.70;;
14756;SDS011;62446;53.214;10.398;2022-07-23T14:44:28;0.70;;;0.70;;
14756;SDS011;62446;53.214;10.398;2022-07-23T14:47:32;1.13;;;0.90;;
14756;SDS011;62446;53.214;10.398;2022-07-23T14:50:35;0.60;;;0.50;;
14756;SDS011;62446;53.214;10.398;2022-07-23T14:53:41;1.00;;;0.60;;
14756;SDS011;62446;53.214;10.398;2022-07-23T14:56:44;2.40;;;0.97;;
14756;SDS011;62446;53.214;10.398;2022-07-23T14:59:49;1.33;;;0.80;;
14756;SDS011;62446;53.214;10.398;2022-07-23T15:02:53;0.70;;;0.70;;
14756;SDS011;62446;53.214;10.398;2022-07-23T15:05:57;0.70;;;0.50;;
14756;SDS011;62446;53.214;10.398;2022-07-23T15:09:04;0.77;;;0.70;;
14756;SDS011;62446;53.214;10.398;2022-07-23T15:12:08;1.27;;;0.80;;
14756;SDS011;62446;53.214;10.398;2022-07-23T15:15:14;0.80;;;0.50;;
14756;SDS011;62446;53.214;10.398;2022-07-23T15:18:17;1.70;;;0.60;;
14756;SDS011;62446;53.214;10.398;2022-07-23T15:21:22;0.60;;;0.60;;
14756;SDS011;62446;53.214;10.398;2022-07-23T15:24:28;2.00;;;0.70;;
14756;SDS011;62446;53.214;10.398;2022-07-23T15:27:31;0.73;;;0.70;;
14756;SDS011;62446;53.214;10.398;2022-07-23T15:30:35;1.03;;;0.70;;
14756;SDS011;62446;53.214;10.398;2022-07-23T15:33:39;0.50;;;0.50;;
14756;SDS011;62446;53.214;10.398;2022-07-23T15:36:43;0.60;;;0.60;;
14756;SDS011;62446;53.214;10.398;2022-07-23T15:39:48;1.07;;;0.80;;
14756;SDS011;62446;53.214;10.398;2022-07-23T15:42:52;0.50;;;0.50;;
14756;SDS011;62446;53.214;10.398;2022-07-23T15:45:56;0.60;;;0.60;;
14756;SDS011;62446;53.214;10.398;2022-07-23T15:49:01;0.70;;;0.60;;
14756;SDS011;62446;53.214;10.398;2022-07-23T15:52:07;0.40;;;0.40;;
14756;SDS011;62446;53.214;10.398;2022-07-23T15:55:13;0.80;;;0.60;;
14756;SDS011;62446;53.214;10.398;2022-07-23T15:58:18;0.57;;;0.57;;
14756;SDS011;62446;53.214;10.398;2022-07-23T16:01:25;0.60;;;0.60;;
14756;SDS011;62446;53.214;10.398;2022-07-23T16:04:31;0.60;;;0.60;;
14756;SDS011;62446;53.214;10.398;2022-07-23T16:07:35;0.57;;;0.50;;
14756;SDS011;62446;53.214;10.398;2022-07-23T16:10:41;0.70;;;0.60;;
14756;SDS011;62446;53.214;10.398;2022-07-23T16:13:45;2.40;;;0.73;;
14756;SDS011;62446;53.214;10.398;2022-07-23T16:16:48;1.57;;;0.60;;
14756;SDS011;62446;53.214;10.398;2022-07-23T16:19:53;1.63;;;0.97;;
14756;SDS011;62446;53.214;10.398;2022-07-23T16:22:56;1.50;;;0.63;;
14756;SDS011;62446;53.214;10.398;2022-07-23T16:26:01;0.70;;;0.70;;
14756;SDS011;62446;53.214;10.398;2022-07-23T16:29:05;1.00;;;0.70;;
14756;SDS011;62446;53.214;10.398;2022-07-23T16:32:20;1.03;;;0.73;;
14756;SDS011;62446;53.214;10.398;2022-07-23T16:35:24;0.63;;;0.63;;
14756;SDS011;62446;53.214;10.398;2022-07-23T16:38:32;0.87;;;0.70;;
14756;SDS011;62446;53.214;10.398;2022-07-23T16:41:38;1.17;;;0.70;;
14756;SDS011;62446;53.214;10.398;2022-07-23T16:44:41;1.53;;;0.60;;
14756;SDS011;62446;53.214;10.398;2022-07-23T16:47:45;1.00;;;0.80;;
14756;SDS011;62446;53.214;10.398;2022-07-23T16:50:49;0.67;;;0.60;;
14756;SDS011;62446;53.214;10.398;2022-07-23T16:53:53;1.63;;;0.60;;
14756;SDS011;62446;53.214;10.398;2022-07-23T16:56:59;0.57;;;0.57;;
14756;SDS011;62446;53.214;10.398;2022-07-23T17:00:03;1.40;;;0.60;;
14756;SDS011;62446;53.214;10.398;2022-07-23T17:03:10;0.73;;;0.73;;
14756;SDS011;62446;53.214;10.398;2022-07-23T17:06:14;1.03;;;0.60;;
14756;SDS011;62446;53.214;10.398;2022-07-23T17:09:18;0.63;;;0.60;;
14756;SDS011;62446;53.214;10.398;2022-07-23T17:12:23;2.07;;;0.77;;
14756;SDS011;62446;53.214;10.398;2022-07-23T17:15:27;2.33;;;0.70;;
14756;SDS011;62446;53.214;10.398;2022-07-23T17:18:31;0.70;;;0.50;;
14756;SDS011;62446;53.214;10.398;2022-07-23T17:21:35;1.30;;;0.90;;
14756;SDS011;62446;53.214;10.398;2022-07-23T17:24:39;0.57;;;0.40;;
14756;SDS011;62446;53.214;10.398;2022-07-23T17:27:48;0.93;;;0.70;;
14756;SDS011;62446;53.214;10.398;2022-07-23T17:30:52;0.67;;;0.67;;
14756;SDS011;62446;53.214;10.398;2022-07-23T17:33:56;0.77;;;0.77;;
14756;SDS011;62446;53.214;10.398;2022-07-23T17:37:01;0.70;;;0.60;;
14756;SDS011;62446;53.214;10.398;2022-07-23T17:40:06;0.67;;;0.67;;
14756;SDS011;62446;53.214;10.398;2022-07-23T17:43:12;1.23;;;0.50;;
14756;SDS011;62446;53.214;10.398;2022-07-23T17:46:16;1.23;;;0.70;;
14756;SDS011;62446;53.214;10.398;2022-07-23T17:49:20;1.27;;;0.70;;
14756;SDS011;62446;53.214;10.398;2022-07-23T17:52:24;0.90;;;0.60;;
14756;SDS011;62446;53.214;10.398;2022-07-23T17:55:28;1.17;;;0.50;;
14756;SDS011;62446;53.214;10.398;2022-07-23T17:58:33;0.70;;;0.70;;
14756;SDS011;62446;53.214;10.398;2022-07-23T18:01:37;0.80;;;0.80;;
14756;SDS011;62446;53.214;10.398;2022-07-23T18:04:41;1.50;;;1.00;;
14756;SDS011;62446;53.214;10.398;2022-07-23T18:07:45;1.37;;;1.07;;
14756;SDS011;62446;53.214;10.398;2022-07-23T18:10:48;1.20;;;0.90;;
14756;SDS011;62446;53.214;10.398;2022-07-23T18:13:54;1.73;;;0.93;;
14756;SDS011;62446;53.214;10.398;2022-07-23T18:16:59;1.37;;;0.90;;
14756;SDS011;62446;53.214;10.398;2022-07-23T18:20:03;3.20;;;1.00;;
14756;SDS011;62446;53.214;10.398;2022-07-23T18:23:08;1.37;;;1.00;;
14756;SDS011;62446;53.214;10.398;2022-07-23T18:26:12;2.47;;;1.20;;
14756;SDS011;62446;53.214;10.398;2022-07-23T18:29:17;2.90;;;1.20;;
14756;SDS011;62446;53.214;10.398;2022-07-23T18:32:21;1.10;;;1.00;;
14756;SDS011;62446;53.214;10.398;2022-07-23T18:35:25;1.73;;;1.00;;
14756;SDS011;62446;53.214;10.398;2022-07-23T18:38:29;2.07;;;1.17;;